Time;durP1;ratioP1;P1;durP2;ratioP2;P2;SDS_P1;SDS_P2;PMS_P1;PMS_P2;Temp;Humidity;BMP_temperature;BMP_pressure;BME280_temperature;BME280_humidity;BME280_pressure;Samples;Min_cycle;Max_cycle;Signal;HPM_P1;HPM_P2
2021/12/11 00:00:59;;;;;;;14.00;12.93;;;;;;;3.35;81.53;91931.78;5082765;28;21177;-73
2021/12/11 00:03:30;;;;;;;16.07;14.67;;;;;;;3.39;82.46;91948.34;5091053;28;20187;-73
2021/12/11 00:06:01;;;;;;;15.00;13.70;;;;;;;3.21;82.88;91928.91;5089386;28;21006;-73
2021/12/11 00:08:29;;;;;;;15.33;14.20;;;;;;;3.09;84.73;91950.75;5090596;28;20184;-75
2021/12/11 00:11:04;;;;;;;15.83;14.57;;;;;;;2.93;86.98;91964.56;5077583;28;20228;-73
2021/12/11 00:13:32;;;;;;;15.50;14.17;;;;;;;3.04;84.63;91971.34;5072621;28;20217;-74
2021/12/11 00:15:59;;;;;;;16.13;14.47;;;;;;;3.03;85.33;91964.63;5084437;28;20212;-74
2021/12/11 00:18:27;;;;;;;17.83;16.33;;;;;;;2.90;86.54;91996.00;5091832;28;20188;-73
2021/12/11 00:20:57;;;;;;;17.27;15.17;;;;;;;2.92;87.49;91999.09;5090708;28;20232;-74
2021/12/11 00:23:28;;;;;;;14.13;12.83;;;;;;;2.79;87.73;92000.28;5091471;28;20203;-73
2021/12/11 00:25:54;;;;;;;15.07;13.83;;;;;;;2.64;88.30;91976.22;5091367;28;20233;-73
2021/12/11 00:28:20;;;;;;;15.50;14.33;;;;;;;2.62;88.07;91979.03;5091930;28;20204;-73
2021/12/11 00:30:46;;;;;;;13.70;12.70;;;;;;;2.64;87.80;91999.41;5090748;28;20204;-74
2021/12/11 00:33:24;;;;;;;14.47;13.23;;;;;;;2.36;88.66;91976.50;5092087;28;20295;-73
2021/12/11 00:35:52;;;;;;;13.47;12.37;;;;;;;2.37;90.47;91983.19;5090029;28;20236;-74
2021/12/11 00:38:23;;;;;;;15.53;14.23;;;;;;;2.60;90.33;91983.66;5090407;28;20185;-74
2021/12/11 00:40:51;;;;;;;15.80;14.47;;;;;;;2.61;89.58;91968.97;5090781;28;20236;-73
2021/12/11 00:43:21;;;;;;;14.37;12.97;;;;;;;2.57;89.74;91970.50;5090926;28;20180;-74
2021/12/11 00:45:49;;;;;;;18.20;16.40;;;;;;;2.46;89.08;91954.16;5078399;28;20216;-74
2021/12/11 00:48:20;;;;;;;15.80;14.23;;;;;;;2.37;89.53;91934.25;5071830;28;20197;-73
2021/12/11 00:51:11;;;;;;;13.67;12.60;;;;;;;2.52;90.39;91958.34;5067799;28;20226;-74
2021/12/11 00:53:38;;;;;;;13.60;12.60;;;;;;;2.52;89.58;91965.31;5071743;28;20197;-73
2021/12/11 00:56:10;;;;;;;14.17;13.17;;;;;;;2.57;89.13;91975.66;5084667;28;20244;-74
2021/12/11 00:58:38;;;;;;;14.50;13.20;;;;;;;2.37;89.82;91960.00;5088819;28;20210;-74
2021/12/11 01:01:14;;;;;;;14.43;13.23;;;;;;;2.13;91.02;91969.06;5091409;28;20228;-74
2021/12/11 01:03:41;;;;;;;14.87;13.77;;;;;;;2.44;89.80;91976.06;5090267;28;20221;-74
2021/12/11 01:06:27;;;;;;;13.33;12.20;;;;;;;2.45;89.99;91962.94;5090899;28;20311;-74
2021/12/11 01:09:00;;;;;;;15.07;13.67;;;;;;;2.38;90.64;91966.72;5090414;28;20232;-74
2021/12/11 01:11:35;;;;;;;13.73;12.63;;;;;;;2.50;89.75;91944.94;5089245;28;20233;-74
2021/12/11 01:14:19;;;;;;;13.20;12.23;;;;;;;2.47;88.42;91934.34;5090215;28;20224;-74
2021/12/11 01:16:52;;;;;;;12.47;11.47;;;;;;;2.77;89.07;91955.94;5090464;28;20204;-73
2021/12/11 01:19:19;;;;;;;12.67;11.63;;;;;;;2.73;88.20;91923.19;5090857;28;20177;-74
2021/12/11 01:21:57;;;;;;;13.80;12.77;;;;;;;2.83;88.54;91942.06;5090484;28;20181;-74
2021/12/11 01:24:43;;;;;;;13.33;12.17;;;;;;;2.79;88.56;91933.28;5090526;28;20236;-75
2021/12/11 01:27:11;;;;;;;12.83;11.93;;;;;;;2.77;87.82;91944.88;5090191;28;20200;-74
2021/12/11 01:29:37;;;;;;;12.30;11.20;;;;;;;2.87;87.06;91940.56;5089707;28;20301;-74
2021/12/11 01:32:05;;;;;;;12.10;11.40;;;;;;;2.74;87.24;91929.91;5089634;28;20217;-74
2021/12/11 01:34:32;;;;;;;12.53;11.83;;;;;;;2.87;86.16;91929.47;5086989;28;20252;-74
2021/12/11 01:36:59;;;;;;;13.37;12.50;;;;;;;3.02;86.54;91948.38;5070143;28;20194;-73
2021/12/11 01:39:28;;;;;;;11.63;10.97;;;;;;;2.68;86.20;91885.28;5069922;28;20192;-74
2021/12/11 01:41:56;;;;;;;12.67;11.47;;;;;;;2.84;85.96;91929.97;5067790;28;20209;-74
2021/12/11 01:44:29;;;;;;;11.83;11.03;;;;;;;3.07;85.37;91917.47;5069564;28;20205;-74
2021/12/11 01:47:04;;;;;;;13.00;12.13;;;;;;;3.00;86.59;91918.75;5069783;28;20215;-74
2021/12/11 01:49:32;;;;;;;11.83;11.03;;;;;;;2.79;86.80;91906.75;5071434;28;20201;-72
2021/12/11 01:52:06;;;;;;;10.87;10.17;;;;;;;2.80;86.46;91900.56;5089798;28;20226;-74
2021/12/11 01:54:37;;;;;;;10.87;10.27;;;;;;;2.98;86.01;91931.09;5090151;28;20188;-74
2021/12/11 01:57:10;;;;;;;12.10;11.50;;;;;;;2.89;86.17;91909.38;5090040;28;20278;-74
2021/12/11 01:59:39;;;;;;;11.07;10.47;;;;;;;2.82;86.87;91921.69;5088114;28;20240;-74
2021/12/11 02:02:31;;;;;;;12.70;11.67;;;;;;;2.89;88.04;91935.16;5089386;28;20200;-74
2021/12/11 02:04:57;;;;;;;13.00;12.07;;;;;;;2.93;87.91;91928.47;5081056;28;20221;-74
2021/12/11 02:07:31;;;;;;;14.33;13.33;;;;;;;2.87;87.78;91916.59;5069315;28;20260;-74
2021/12/11 02:09:59;;;;;;;15.27;13.93;;;;;;;2.81;87.72;91931.25;5068964;28;20228;-74
2021/12/11 02:12:33;;;;;;;15.23;13.93;;;;;;;2.79;86.39;91924.78;5068815;28;20201;-74
2021/12/11 02:15:01;;;;;;;16.53;15.17;;;;;;;2.53;86.63;91917.91;5074200;28;20230;-74
2021/12/11 02:17:46;;;;;;;15.03;13.70;;;;;;;2.79;86.00;91917.84;5088985;28;20200;-74
2021/12/11 02:20:19;;;;;;;13.77;12.63;;;;;;;2.81;86.88;91918.38;5088719;28;20220;-74
2021/12/11 02:22:49;;;;;;;14.97;13.77;;;;;;;2.86;85.53;91909.88;5089908;28;20188;-73
2021/12/11 02:25:24;;;;;;;12.70;11.63;;;;;;;2.65;86.41;91901.25;5088932;28;20212;-74
2021/12/11 02:28:39;;;;;;;13.50;12.43;;;;;;;2.65;87.88;91914.13;5087080;28;20220;-74
2021/12/11 02:31:28;;;;;;;13.33;12.53;;;;;;;2.61;88.52;91910.50;5089707;28;20240;-74
2021/12/11 02:33:57;;;;;;;19.00;16.97;;;;;;;2.47;87.29;91898.28;5089356;28;20189;-74
2021/12/11 02:36:30;;;;;;;11.93;11.23;;;;;;;2.90;85.82;91921.25;5089416;28;20223;-74
2021/12/11 02:38:57;;;;;;;11.13;10.53;;;;;;;2.98;85.50;91913.03;5089239;28;20192;-73
2021/12/11 02:41:34;;;;;;;11.90;11.00;;;;;;;2.99;86.58;91906.84;5088912;28;20220;-74
2021/12/11 02:44:07;;;;;;;12.43;11.63;;;;;;;2.73;86.48;91881.97;5086476;28;20224;-74
2021/12/11 02:46:42;;;;;;;10.83;10.23;;;;;;;2.92;85.93;91880.53;5088510;28;20254;-74
2021/12/11 02:49:14;;;;;;;10.43;9.93;;;;;;;3.04;85.80;91901.72;5089235;28;20200;-74
2021/12/11 02:51:46;;;;;;;12.73;11.93;;;;;;;3.15;86.61;91882.72;5088422;28;20235;-73
2021/12/11 02:54:26;;;;;;;9.77;9.27;;;;;;;3.60;83.63;91890.63;5089868;28;20222;-74
2021/12/11 02:57:06;;;;;;;10.07;9.47;;;;;;;3.49;83.99;91888.28;5087966;28;20216;-71
2021/12/11 02:59:39;;;;;;;10.90;10.40;;;;;;;3.58;83.88;91886.75;5087107;28;20246;-74
2021/12/11 03:02:14;;;;;;;10.60;10.10;;;;;;;3.60;83.42;91861.44;5089196;28;20196;-73
2021/12/11 03:04:51;;;;;;;9.77;9.27;;;;;;;3.51;84.33;91830.22;5086739;28;20231;-74
2021/12/11 03:07:22;;;;;;;9.97;9.57;;;;;;;3.97;82.83;91870.56;5086924;28;20891;-73
2021/12/11 03:09:54;;;;;;;9.97;9.53;;;;;;;4.16;81.78;91871.63;5089576;28;20236;-74
2021/12/11 03:12:21;;;;;;;9.60;9.20;;;;;;;4.39;79.88;91876.28;5086997;28;20252;-74
2021/12/11 03:14:47;;;;;;;10.33;9.93;;;;;;;4.43;79.53;91872.16;5086624;28;20310;-74
2021/12/11 03:17:15;;;;;;;11.43;10.73;;;;;;;4.78;77.61;91874.69;5086242;28;20212;-74
2021/12/11 03:19:43;;;;;;;11.73;11.03;;;;;;;4.75;77.78;91864.09;5086911;28;20231;-74
2021/12/11 03:22:13;;;;;;;12.07;11.37;;;;;;;4.61;77.97;91873.41;5088799;28;20185;-74
2021/12/11 03:24:39;;;;;;;11.80;11.10;;;;;;;4.40;79.32;91864.91;5086413;28;20232;-74
2021/12/11 03:27:06;;;;;;;11.67;10.97;;;;;;;4.16;80.99;91856.13;5087617;28;20196;-74
2021/12/11 03:29:32;;;;;;;10.30;9.80;;;;;;;3.98;81.21;91833.41;5087414;28;20686;-74
2021/12/11 03:31:58;;;;;;;11.90;11.30;;;;;;;4.13;80.75;91845.53;5088472;28;20195;-74
2021/12/11 03:34:28;;;;;;;10.53;10.10;;;;;;;4.11;81.26;91838.03;5087607;28;20201;-74
2021/12/11 03:36:56;;;;;;;10.53;10.03;;;;;;;4.00;81.02;91820.97;5089412;28;20240;-74
2021/12/11 03:39:27;;;;;;;10.17;9.70;;;;;;;4.21;81.31;91843.22;5088035;28;20203;-73
2021/12/11 03:41:55;;;;;;;10.47;9.97;;;;;;;4.09;81.65;91844.50;5090935;28;20185;-74
2021/12/11 03:44:21;;;;;;;11.23;10.63;;;;;;;4.03;82.29;91830.03;5090566;28;20217;-74
2021/12/11 03:46:50;;;;;;;9.93;9.43;;;;;;;4.06;82.70;91848.34;5088430;28;20192;-74
2021/12/11 03:49:18;;;;;;;10.07;9.57;;;;;;;3.91;83.67;91850.16;5091001;28;20964;-75
2021/12/11 03:51:48;;;;;;;10.37;9.87;;;;;;;3.95;84.13;91853.78;5089661;28;20222;-74
2021/12/11 03:54:20;;;;;;;10.33;9.63;;;;;;;3.94;83.40;91836.75;5090227;28;20275;-75
2021/12/11 03:56:45;;;;;;;10.50;10.00;;;;;;;4.08;83.62;91848.88;5090075;28;20248;-73
2021/12/11 03:59:13;;;;;;;11.03;10.37;;;;;;;4.09;82.94;91845.28;5090007;28;20211;-73
2021/12/11 04:01:45;;;;;;;11.00;10.50;;;;;;;3.73;82.40;91789.50;5090474;28;20276;-74
2021/12/11 04:04:26;;;;;;;11.30;10.53;;;;;;;4.08;82.54;91835.97;5091910;28;20208;-74
2021/12/11 04:06:52;;;;;;;11.37;10.83;;;;;;;4.10;82.97;91857.16;5090692;28;20254;-75
2021/12/11 04:09:19;;;;;;;10.90;10.30;;;;;;;3.89;83.86;91826.41;5090567;28;20208;-74
2021/12/11 04:11:47;;;;;;;10.60;9.93;;;;;;;4.03;83.62;91830.78;5091594;28;20195;-75
2021/12/11 04:14:17;;;;;;;11.00;10.40;;;;;;;3.97;82.99;91831.84;5089927;28;20224;-74
2021/12/11 04:16:43;;;;;;;12.07;11.27;;;;;;;4.08;83.71;91854.06;5091525;28;20274;-74
2021/12/11 04:19:09;;;;;;;10.63;10.03;;;;;;;4.14;82.44;91847.84;5090304;28;20180;-74
2021/12/11 04:21:36;;;;;;;12.73;11.90;;;;;;;3.95;81.80;91833.13;5088951;28;20221;-75
2021/12/11 04:24:04;;;;;;;11.63;11.10;;;;;;;3.99;84.18;91826.41;5093294;28;20272;-75
2021/12/11 04:26:29;;;;;;;10.87;10.37;;;;;;;4.19;83.14;91834.94;5089317;28;20223;-75
2021/12/11 04:28:55;;;;;;;9.73;9.33;;;;;;;4.40;83.05;91861.56;5090634;28;20182;-75
2021/12/11 04:31:25;;;;;;;10.70;10.20;;;;;;;4.44;83.26;91842.69;5089658;28;20208;-75
2021/12/11 04:33:53;;;;;;;12.20;11.40;;;;;;;4.29;83.77;91814.28;5089604;28;20239;-75
2021/12/11 04:36:25;;;;;;;12.60;11.80;;;;;;;4.41;84.10;91817.38;5089815;28;20222;-75
2021/12/11 04:38:52;;;;;;;12.27;11.53;;;;;;;4.19;86.94;91829.00;5090624;28;20189;-75
2021/12/11 04:41:26;;;;;;;11.80;11.07;;;;;;;4.26;86.79;91840.63;5089896;28;20224;-75
2021/12/11 04:43:56;;;;;;;12.00;11.30;;;;;;;4.24;87.49;91836.75;5091243;28;20212;-74
2021/12/11 04:46:21;;;;;;;10.77;10.17;;;;;;;4.15;87.33;91817.63;5089393;28;20228;-74
2021/12/11 04:51:25;;;;;;;11.00;10.50;;;;;;;3.79;89.95;91829.75;5089695;28;20227;-75
2021/12/11 04:54:10;;;;;;;11.20;10.60;;;;;;;3.84;88.97;91818.66;5089456;28;20746;-75
2021/12/11 04:57:11;;;;;;;9.77;9.37;;;;;;;3.79;90.41;91844.47;5087555;28;20228;-74
2021/12/11 05:05:05;;;;;;;10.70;10.03;;;;;;;3.31;91.44;91801.81;5088452;28;20217;-75
2021/12/11 05:10:26;;;;;;;11.10;10.50;;;;;;;3.74;91.64;91831.53;5089917;28;20320;-75
2021/12/11 05:12:54;;;;;;;12.17;11.37;;;;;;;3.61;90.82;91834.63;5087340;28;20242;-75
2021/12/11 05:15:24;;;;;;;11.23;10.60;;;;;;;3.67;91.39;91815.53;5089348;28;20232;-75
2021/12/11 05:17:51;;;;;;;11.23;10.73;;;;;;;3.76;90.64;91819.94;5089674;28;20192;-75
2021/12/11 05:20:20;;;;;;;10.47;10.03;;;;;;;3.73;90.95;91825.63;5090755;28;20240;-75
2021/12/11 05:22:46;;;;;;;10.47;9.97;;;;;;;3.70;90.20;91825.34;5089130;28;20176;-74
2021/12/11 05:25:13;;;;;;;10.87;10.37;;;;;;;3.81;91.20;91817.38;5081674;28;20274;-75
2021/12/11 05:27:41;;;;;;;10.87;10.37;;;;;;;3.84;91.02;91819.44;5068657;28;20198;-75
2021/12/11 05:30:11;;;;;;;12.20;11.20;;;;;;;3.74;90.65;91810.91;5070280;28;20288;-76
2021/12/11 05:32:38;;;;;;;11.37;10.77;;;;;;;3.90;90.50;91823.56;5068847;28;20315;-75
2021/12/11 05:35:05;;;;;;;13.07;12.17;;;;;;;3.88;91.78;91828.22;5075538;28;20224;-75
2021/12/11 05:37:31;;;;;;;13.13;12.13;;;;;;;3.86;91.97;91826.94;5090266;28;20260;-75
2021/12/11 05:39:57;;;;;;;14.63;13.23;;;;;;;4.13;89.75;91830.81;5082504;28;20222;-76
2021/12/11 05:42:22;;;;;;;12.47;11.77;;;;;;;4.01;88.29;91811.44;5070557;28;20235;-75
2021/12/11 05:44:48;;;;;;;13.17;12.47;;;;;;;3.77;89.17;91811.16;5068890;28;20228;-75
2021/12/11 05:47:14;;;;;;;11.97;11.17;;;;;;;3.73;90.86;91837.75;5070252;28;20271;-75
2021/12/11 05:49:41;;;;;;;12.57;11.53;;;;;;;3.64;92.48;91834.13;5073730;28;20224;-75
2021/12/11 05:52:09;;;;;;;13.03;12.23;;;;;;;3.60;92.51;91813.22;5090799;28;20189;-74
2021/12/11 05:54:37;;;;;;;13.50;12.47;;;;;;;3.73;92.96;91827.41;5089025;28;20188;-75
2021/12/11 05:57:07;;;;;;;13.70;12.53;;;;;;;3.80;93.19;91836.47;5090557;28;20691;-75
2021/12/11 05:59:33;;;;;;;14.07;12.87;;;;;;;3.77;93.29;91846.50;5089007;28;20196;-75
2021/12/11 06:02:10;;;;;;;14.70;13.47;;;;;;;3.70;91.88;91862.28;5089565;28;20192;-77
2021/12/11 06:04:38;;;;;;;14.43;13.17;;;;;;;3.51;92.86;91832.81;5088767;28;20250;-75
2021/12/11 06:07:07;;;;;;;14.17;13.17;;;;;;;3.71;92.61;91837.22;5087137;28;20193;-76
2021/12/11 06:09:33;;;;;;;14.40;13.50;;;;;;;3.75;92.11;91828.72;5085877;28;20268;-76
2021/12/11 06:12:03;;;;;;;11.73;10.83;;;;;;;3.89;91.26;91849.66;5068997;28;20227;-76
2021/12/11 06:14:29;;;;;;;14.27;13.27;;;;;;;3.95;91.15;91853.78;5067466;28;20235;-76
2021/12/11 06:17:00;;;;;;;15.17;14.07;;;;;;;4.10;90.21;91857.16;5068001;28;20184;-75
2021/12/11 06:19:26;;;;;;;16.07;14.57;;;;;;;3.45;93.34;91830.47;5099631;28;20214;-75
2021/12/11 06:21:54;;;;;;;21.77;20.20;;;;;;;3.60;94.05;91851.91;5088897;28;20189;-76
2021/12/11 06:24:20;;;;;;;26.00;21.13;;;;;;;4.04;92.79;91850.44;5088612;28;20232;-76
2021/12/11 06:26:46;;;;;;;14.73;13.43;;;;;;;4.17;91.87;91859.50;5088511;28;20220;-75
2021/12/11 06:29:13;;;;;;;17.23;15.57;;;;;;;4.05;91.13;91856.38;5089122;28;20184;-76
2021/12/11 06:31:38;;;;;;;17.00;15.37;;;;;;;3.88;90.89;91848.09;5119001;28;20241;-75
2021/12/11 06:34:04;;;;;;;18.40;16.73;;;;;;;3.97;92.37;91856.91;5088228;28;20192;-78
2021/12/11 06:36:30;;;;;;;17.10;15.50;;;;;;;4.25;90.28;91867.47;5088054;28;20347;-75
2021/12/11 06:39:00;;;;;;;17.13;15.73;;;;;;;3.96;90.83;91850.94;5086016;28;20184;-76
2021/12/11 06:41:31;;;;;;;18.43;16.73;;;;;;;4.21;90.67;91869.03;5085943;28;20220;-75
2021/12/11 06:43:57;;;;;;;17.37;15.60;;;;;;;4.37;89.90;91868.00;5083193;28;20236;-76
2021/12/11 06:46:23;;;;;;;17.83;16.13;;;;;;;4.34;90.22;91865.16;5069130;28;20224;-76
2021/12/11 06:48:48;;;;;;;17.67;15.97;;;;;;;4.44;89.76;91865.94;5065956;28;20197;-76
2021/12/11 06:51:15;;;;;;;17.00;15.57;;;;;;;4.55;89.44;91864.91;5080170;28;20873;-75
2021/12/11 06:53:45;;;;;;;17.07;15.57;;;;;;;4.39;89.73;91840.09;5084619;28;20897;-75
2021/12/11 06:56:14;;;;;;;17.00;15.47;;;;;;;4.66;90.20;91856.09;5083779;28;20249;-77
2021/12/11 06:58:39;;;;;;;17.93;16.33;;;;;;;4.60;90.78;91861.53;5086969;28;20217;-76
2021/12/11 07:01:07;;;;;;;20.73;18.73;;;;;;;4.69;90.13;91854.78;5083011;28;20238;-77
2021/12/11 07:03:33;;;;;;;19.77;18.00;;;;;;;4.26;90.31;91824.34;5084937;28;20192;-75
2021/12/11 07:05:59;;;;;;;17.67;15.97;;;;;;;4.60;90.85;91862.31;5084031;28;20228;-76
2021/12/11 07:08:26;;;;;;;19.70;17.90;;;;;;;4.58;91.21;91856.63;5079839;28;20185;-74
2021/12/11 07:10:52;;;;;;;17.60;16.20;;;;;;;4.65;91.15;91849.38;5070328;28;20244;-74
2021/12/11 07:13:18;;;;;;;17.67;16.13;;;;;;;4.56;90.34;91838.00;5065581;28;20603;-77
2021/12/11 07:15:43;;;;;;;18.70;17.20;;;;;;;4.69;90.49;91840.06;5072013;28;20227;-71
2021/12/11 07:18:09;;;;;;;18.43;17.00;;;;;;;4.72;90.96;91841.34;5069179;28;20204;-75
2021/12/11 07:20:36;;;;;;;17.83;16.00;;;;;;;4.85;90.08;91833.84;5081651;28;20223;-75
2021/12/11 07:23:01;;;;;;;18.40;16.90;;;;;;;4.70;89.93;91812.41;5089901;28;20322;-74
2021/12/11 07:25:48;;;;;;;17.87;16.30;;;;;;;4.91;89.63;91840.53;5081837;28;20228;-74
2021/12/11 07:28:15;;;;;;;20.07;18.03;;;;;;;4.89;89.91;91819.34;5071370;28;20204;-73
2021/12/11 07:30:44;;;;;;;20.13;18.27;;;;;;;5.03;90.04;91832.47;5081215;28;20247;-76
2021/12/11 07:33:11;;;;;;;19.53;17.63;;;;;;;4.86;89.32;91798.41;5091456;28;20194;-75
2021/12/11 07:35:39;;;;;;;22.77;20.63;;;;;;;5.24;87.96;91826.22;5080253;28;20225;-73
2021/12/11 07:38:05;;;;;;;20.57;18.60;;;;;;;5.32;87.53;91830.06;5070575;28;20204;-73
2021/12/11 07:40:42;;;;;;;21.13;19.20;;;;;;;5.44;85.96;91830.50;5070133;28;20226;-75
2021/12/11 07:43:10;;;;;;;21.50;19.30;;;;;;;5.31;85.47;91818.91;5067201;28;20189;-74
2021/12/11 07:45:36;;;;;;;19.23;17.60;;;;;;;5.29;86.20;91833.16;5069199;28;20221;-74
2021/12/11 07:48:02;;;;;;;20.37;18.27;;;;;;;5.34;85.97;91826.16;5071192;28;20186;-73
2021/12/11 07:50:28;;;;;;;19.07;17.37;;;;;;;5.39;85.37;91820.19;5069787;28;20704;-74
2021/12/11 07:52:54;;;;;;;17.33;15.93;;;;;;;5.55;84.67;91827.63;5069691;28;20188;-74
2021/12/11 07:55:20;;;;;;;17.17;15.77;;;;;;;5.56;83.75;91830.97;5068448;28;20217;-73
2021/12/11 07:57:46;;;;;;;17.07;15.83;;;;;;;5.51;83.88;91812.88;5068431;28;20188;-72
2021/12/11 08:00:16;;;;;;;14.03;13.03;;;;;;;5.40;83.42;91801.78;5066959;28;20225;-73
2021/12/11 08:02:42;;;;;;;13.87;12.97;;;;;;;5.51;82.81;91810.31;5068599;28;20211;-73
2021/12/11 08:05:08;;;;;;;15.43;14.30;;;;;;;5.66;81.85;91807.63;5068662;28;20220;-72
2021/12/11 08:07:34;;;;;;;19.07;17.17;;;;;;;5.70;83.32;91834.50;5068900;28;20276;-76
2021/12/11 08:10:00;;;;;;;19.17;17.57;;;;;;;5.57;84.41;91835.13;5074430;28;20229;-76
2021/12/11 08:12:26;;;;;;;20.97;18.97;;;;;;;5.71;85.02;91846.44;5087886;28;20192;-77
2021/12/11 08:14:51;;;;;;;21.83;19.73;;;;;;;5.78;85.32;91833.94;5089007;28;20245;-77
2021/12/11 08:17:19;;;;;;;21.00;19.03;;;;;;;5.87;84.89;91830.56;5091065;28;20251;-76
2021/12/11 08:19:45;;;;;;;22.33;20.17;;;;;;;6.07;83.68;91830.41;5086561;28;20806;-76
2021/12/11 08:22:11;;;;;;;21.27;19.27;;;;;;;5.97;83.22;91806.41;5090254;28;20199;-76
2021/12/11 08:24:38;;;;;;;20.67;18.70;;;;;;;6.28;82.34;91816.28;5089143;28;20233;-76
2021/12/11 08:27:11;;;;;;;20.93;18.73;;;;;;;6.41;81.13;91813.06;5090301;28;20197;-73
2021/12/11 08:29:38;;;;;;;23.17;20.77;;;;;;;6.32;82.39;91830.25;5089771;28;20283;-73
2021/12/11 08:32:04;;;;;;;19.17;17.37;;;;;;;6.33;82.47;91833.63;5090547;28;20189;-72
2021/12/11 08:34:30;;;;;;;21.37;17.77;;;;;;;6.60;81.84;91828.69;5090035;28;20192;-76
2021/12/11 08:36:57;;;;;;;21.07;18.90;;;;;;;6.80;79.56;91825.94;5089394;28;20193;-77
2021/12/11 08:39:23;;;;;;;20.37;18.37;;;;;;;6.88;78.73;91809.00;5088638;28;20240;-78
2021/12/11 08:41:51;;;;;;;19.03;17.43;;;;;;;6.87;77.91;91815.22;5089334;28;20468;-77
2021/12/11 08:44:18;;;;;;;16.97;15.27;;;;;;;6.41;78.61;91761.22;5089189;28;20213;-78
2021/12/11 08:46:54;;;;;;;18.10;16.47;;;;;;;6.79;79.18;91811.41;5089283;28;21041;-76
2021/12/11 08:49:24;;;;;;;16.20;14.90;;;;;;;6.95;79.44;91825.00;5088259;28;20214;-74
2021/12/11 08:51:57;;;;;;;15.53;14.37;;;;;;;6.85;78.25;91799.94;5090453;28;20173;-74
2021/12/11 08:54:26;;;;;;;15.60;14.50;;;;;;;7.03;78.09;91812.22;5088025;28;20192;-75
2021/12/11 08:56:51;;;;;;;15.83;14.73;;;;;;;6.81;78.23;91775.59;5087167;28;20645;-75
2021/12/11 08:59:19;;;;;;;14.37;13.37;;;;;;;6.94;77.08;91767.13;5086935;28;20201;-78
2021/12/11 09:01:44;;;;;;;16.13;14.77;;;;;;;7.34;75.97;91797.84;5086743;28;20196;-75
2021/12/11 09:04:26;;;;;;;17.07;15.50;;;;;;;7.30;76.38;91794.22;5087797;28;20235;-76
2021/12/11 09:06:57;;;;;;;16.13;14.80;;;;;;;7.37;75.99;91799.88;5067701;28;20247;-75
2021/12/11 09:09:34;;;;;;;16.20;14.70;;;;;;;7.28;76.56;91798.94;5067828;28;20184;-73
2021/12/11 09:12:07;;;;;;;16.33;14.97;;;;;;;7.45;75.00;91799.25;5069811;28;20188;-74
2021/12/11 09:14:39;;;;;;;16.10;14.97;;;;;;;7.52;74.46;91783.31;5069213;28;20217;-74
2021/12/11 09:17:43;;;;;;;15.73;14.50;;;;;;;7.39;75.14;91784.00;5087079;28;20219;-73
2021/12/11 09:20:12;;;;;;;15.77;14.53;;;;;;;7.37;75.08;91786.88;5048489;28;20291;-73
2021/12/11 09:22:47;;;;;;;15.50;14.30;;;;;;;7.08;75.69;91760.22;5068931;28;20200;-76
2021/12/11 09:25:32;;;;;;;17.37;15.83;;;;;;;7.18;75.67;91782.69;5077116;28;20302;-76
2021/12/11 09:28:02;;;;;;;15.53;14.27;;;;;;;7.32;75.81;91768.00;5079343;28;20250;-74
2021/12/11 09:30:41;;;;;;;16.47;14.77;;;;;;;7.40;75.19;91770.75;5074955;28;20715;-74
2021/12/11 09:33:17;;;;;;;20.67;16.33;;;;;;;7.51;75.21;91764.38;5078455;28;20193;-75
2021/12/11 09:35:53;;;;;;;18.17;16.47;;;;;;;7.56;75.72;91763.53;5065598;28;20237;-75
2021/12/11 09:38:35;;;;;;;17.80;16.10;;;;;;;7.76;75.94;91764.03;5066130;28;20212;-74
2021/12/11 09:41:24;;;;;;;17.17;15.70;;;;;;;7.82;74.54;91773.31;5068933;28;20233;-80
2021/12/11 09:43:52;;;;;;;17.07;15.30;;;;;;;7.85;75.37;91758.97;5067222;28;20245;-75
2021/12/11 09:46:28;;;;;;;15.60;14.50;;;;;;;7.89;73.53;91742.53;5069605;28;20594;-77
2021/12/11 09:48:57;;;;;;;15.00;13.83;;;;;;;8.00;74.51;91764.72;5069816;28;20192;-75
2021/12/11 09:51:31;;;;;;;18.10;16.50;;;;;;;8.12;74.02;91757.22;5068350;28;20958;-74
2021/12/11 09:54:00;;;;;;;15.07;14.00;;;;;;;7.82;74.38;91742.13;5068393;28;20204;-75
2021/12/11 09:56:38;;;;;;;14.00;12.73;;;;;;;7.93;73.90;91748.72;5085620;28;20220;-76
2021/12/11 09:59:08;;;;;;;14.10;13.00;;;;;;;7.91;74.13;91750.03;5088542;28;20224;-76
2021/12/11 10:01:38;;;;;;;14.73;13.63;;;;;;;7.86;73.63;91735.28;5087843;28;20321;-75
2021/12/11 10:04:17;;;;;;;13.90;12.80;;;;;;;8.13;73.21;91732.03;5087181;28;20307;-74
2021/12/11 10:07:13;;;;;;;15.87;14.57;;;;;;;8.18;72.33;91724.94;5067611;28;20252;-74
2021/12/11 10:09:43;;;;;;;13.97;12.73;;;;;;;8.28;71.50;91729.19;5067662;28;20209;-76
2021/12/11 10:12:18;;;;;;;14.20;13.03;;;;;;;7.97;72.10;91702.91;5067923;28;20193;-75
2021/12/11 10:14:50;;;;;;;12.60;11.70;;;;;;;8.24;72.13;91730.06;5070523;28;20274;-78
2021/12/11 10:17:30;;;;;;;11.90;11.10;;;;;;;8.33;70.21;91723.91;5088146;28;20215;-76
2021/12/11 10:19:59;;;;;;;11.63;10.83;;;;;;;8.34;70.00;91740.28;5088273;28;20234;-78
2021/12/11 10:22:35;;;;;;;11.23;10.60;;;;;;;8.42;69.55;91731.84;5088171;28;20200;-78
2021/12/11 10:25:04;;;;;;;14.43;13.03;;;;;;;8.52;68.68;91737.63;5086834;28;20355;-79
2021/12/11 10:27:31;;;;;;;14.07;12.80;;;;;;;8.53;67.90;91722.81;5087634;28;20204;-78
2021/12/11 10:29:59;;;;;;;27.40;20.20;;;;;;;8.54;68.45;91732.94;5088984;28;20230;-80
2021/12/11 10:32:30;;;;;;;42.13;23.57;;;;;;;8.59;68.48;91735.41;5088239;28;20185;-79
2021/12/11 10:34:59;;;;;;;72.10;27.90;;;;;;;8.57;68.67;91736.78;5082536;28;20278;-78
2021/12/11 10:37:34;;;;;;;131.77;45.47;;;;;;;8.61;68.21;91727.31;5066654;28;20182;-78
2021/12/11 10:40:07;;;;;;;126.93;41.57;;;;;;;8.35;68.91;91702.81;5083519;28;20293;-80
2021/12/11 10:42:33;;;;;;;144.53;46.40;;;;;;;8.45;69.29;91720.88;5065723;28;20216;-79
2021/12/11 10:45:00;;;;;;;153.23;50.57;;;;;;;8.50;69.10;91723.38;5073799;28;20220;-80
2021/12/11 10:47:34;;;;;;;89.77;37.30;;;;;;;8.48;68.98;91707.28;5088073;28;20196;-77
2021/12/11 10:50:04;;;;;;;53.60;24.97;;;;;;;8.58;68.62;91696.69;5081612;28;20217;-80
2021/12/11 10:52:31;;;;;;;42.43;20.50;;;;;;;8.55;68.40;91681.66;5072367;28;20200;-79
2021/12/11 10:55:00;;;;;;;48.03;20.10;;;;;;;8.67;68.77;91700.19;5069590;28;20229;-76
2021/12/11 10:57:27;;;;;;;25.60;16.50;;;;;;;8.71;73.59;91701.91;5073304;28;20197;-78
2021/12/11 10:59:56;;;;;;;26.53;17.63;;;;;;;8.76;69.34;91701.03;5070122;28;20221;-79
2021/12/11 11:02:30;;;;;;;24.27;15.70;;;;;;;8.90;68.50;91699.97;5069404;28;20197;-79
2021/12/11 11:05:00;;;;;;;13.03;12.00;;;;;;;8.78;68.66;91702.28;5069241;28;20229;-79
2021/12/11 11:07:27;;;;;;;12.90;12.03;;;;;;;8.91;68.68;91675.50;5069917;28;20212;-78
2021/12/11 11:09:56;;;;;;;14.43;13.40;;;;;;;8.83;69.04;91693.63;5070961;28;20213;-82
2021/12/11 11:12:24;;;;;;;13.13;12.00;;;;;;;8.62;69.99;91693.25;5071319;28;20181;-79
2021/12/11 11:14:52;;;;;;;14.50;13.40;;;;;;;8.51;71.44;91699.69;5071438;28;20255;-75
2021/12/11 11:17:22;;;;;;;15.93;14.43;;;;;;;8.44;71.61;91691.47;5091851;28;20179;-76
2021/12/11 11:19:50;;;;;;;18.83;16.10;;;;;;;8.26;73.14;91683.75;5089866;28;20288;-77
2021/12/11 11:22:20;;;;;;;17.43;15.77;;;;;;;8.09;73.80;91651.22;5090282;28;20215;-77
2021/12/11 11:24:51;;;;;;;17.37;15.70;;;;;;;8.24;73.09;91673.63;5089173;28;20221;-78
2021/12/11 11:27:17;;;;;;;16.50;15.00;;;;;;;8.20;72.62;91650.00;5090556;28;20184;-77
2021/12/11 11:29:45;;;;;;;16.73;15.10;;;;;;;8.18;72.65;91646.94;5090817;28;20228;-75
2021/12/11 11:32:16;;;;;;;15.23;13.73;;;;;;;8.29;73.50;91670.16;5089666;28;20274;-75
2021/12/11 11:34:43;;;;;;;13.13;12.03;;;;;;;8.25;73.28;91656.22;5089721;28;20240;-77
2021/12/11 11:37:14;;;;;;;14.10;12.67;;;;;;;8.13;73.51;91643.66;5089806;28;20193;-73
2021/12/11 11:39:40;;;;;;;12.73;11.53;;;;;;;8.01;74.93;91645.94;5089550;28;20235;-76
2021/12/11 11:42:16;;;;;;;12.23;11.33;;;;;;;8.00;75.49;91636.59;5091317;28;20181;-75
2021/12/11 11:44:45;;;;;;;13.87;12.83;;;;;;;7.89;75.38;91622.25;5089543;28;20240;-74
2021/12/11 11:47:13;;;;;;;14.30;13.23;;;;;;;7.99;75.66;91622.84;5088467;28;20216;-71
2021/12/11 11:49:39;;;;;;;13.40;12.40;;;;;;;7.95;75.61;91634.84;5087914;28;20217;-69
2021/12/11 11:52:09;;;;;;;12.97;11.97;;;;;;;7.99;75.96;91648.81;5086451;28;20204;-71